createdAt,value
2023-05-01T00:00:47.892Z,100517.72
2023-05-01T00:04:00.809Z,100520.38
2023-05-01T00:07:13.291Z,100514.38
2023-05-01T00:10:25.914Z,100511.16
2023-05-01T00:13:38.336Z,100506.84
2023-05-01T00:16:51.330Z,100503.94
2023-05-01T00:20:05.398Z,100507.16
2023-05-01T00:23:18.371Z,100499.84
2023-05-01T00:26:31.543Z,100501.94
2023-05-01T00:29:44.253Z,100497.59
2023-05-01T00:32:56.682Z,100492.34
2023-05-01T00:36:10.056Z,100491.91
2023-05-01T00:39:22.430Z,100491.75
2023-05-01T00:42:36.432Z,100499.72
2023-05-01T00:45:48.847Z,100494.59
2023-05-01T00:49:01.665Z,100496.97
2023-05-01T00:52:13.997Z,100497.47
2023-05-01T00:55:26.734Z,100492.59
2023-05-01T00:58:39.134Z,100505.72
2023-05-01T01:01:54.347Z,100502.56
2023-05-01T01:05:08.062Z,100506.31
2023-05-01T01:08:32.040Z,100510.63
2023-05-01T01:11:49.490Z,100513.12
2023-05-01T01:15:08.242Z,100513.12
2023-05-01T01:18:26.471Z,100510.88
2023-05-01T01:21:40.772Z,100506.34
2023-05-01T01:24:59.469Z,100512.63
2023-05-01T01:28:21.966Z,100516.44
2023-05-01T01:31:39.758Z,100517.34
2023-05-01T01:34:54.549Z,100511.31
2023-05-01T01:38:13.023Z,100517.06
2023-05-01T01:41:29.476Z,100520.72
2023-05-01T01:44:43.466Z,100505.09
2023-05-01T01:47:56.272Z,100519.97
2023-05-01T01:51:12.249Z,100516.28
2023-05-01T01:54:36.600Z,100518.66
2023-05-01T01:57:48.926Z,100519.09
2023-05-01T02:01:01.552Z,100509.94
2023-05-01T02:04:14.303Z,100507.91
2023-05-01T02:07:27.052Z,100513.94
2023-05-01T02:10:40.653Z,100509.72
2023-05-01T02:13:53.015Z,100512.34
2023-05-01T02:17:05.827Z,100508.84
2023-05-01T02:20:18.228Z,100511.78
2023-05-01T02:23:31.243Z,100517.50
2023-05-01T02:26:45.703Z,100510.47
2023-05-01T02:29:58.301Z,100512.34
2023-05-01T02:33:11.243Z,100508.34
2023-05-01T02:36:23.722Z,100502.94
2023-05-01T02:39:36.414Z,100509.03
2023-05-01T02:42:48.940Z,100505.84
2023-05-01T02:46:02.246Z,100510.16
2023-05-01T02:49:15.185Z,100519.75
2023-05-01T02:52:28.312Z,100510.59
2023-05-01T02:55:43.088Z,100525.13
2023-05-01T02:58:55.911Z,100517.72
2023-05-01T03:02:08.360Z,100521.19
2023-05-01T03:05:21.044Z,100522.97
2023-05-01T03:08:33.378Z,100517.44
2023-05-01T03:11:46.137Z,100520.94
2023-05-01T03:14:58.577Z,100521.06
2023-05-01T03:18:11.224Z,100523.91
2023-05-01T03:21:24.612Z,100526.91
2023-05-01T03:24:37.205Z,100528.00
2023-05-01T03:27:50.090Z,100528.78
2023-05-01T03:31:02.856Z,100532.41
2023-05-01T03:34:15.570Z,100527.12
2023-05-01T03:37:28.570Z,100524.50
2023-05-01T03:40:41.042Z,100530.47
2023-05-01T03:43:56.477Z,100527.72
2023-05-01T03:47:10.363Z,100528.53
2023-05-01T03:50:23.574Z,100535.69
2023-05-01T03:53:36.876Z,100535.69
2023-05-01T03:56:50.143Z,100529.22
2023-05-01T04:00:05.534Z,100523.41
2023-05-01T04:03:27.575Z,100536.09
2023-05-01T04:06:41.800Z,100534.06
2023-05-01T04:09:54.479Z,100526.00
2023-05-01T04:13:07.515Z,100526.91
2023-05-01T04:16:20.582Z,100528.06
2023-05-01T04:19:34.854Z,100533.22
2023-05-01T04:22:47.777Z,100529.00
2023-05-01T04:26:00.420Z,100528.63
2023-05-01T04:29:12.793Z,100528.50
2023-05-01T04:32:26.223Z,100530.47
2023-05-01T04:35:39.260Z,100532.56
2023-05-01T04:38:52.374Z,100531.19
2023-05-01T04:42:05.053Z,100538.37
2023-05-01T04:45:17.833Z,100528.22
2023-05-01T04:48:30.407Z,100532.28
2023-05-01T04:51:43.213Z,100542.37
2023-05-01T04:54:57.905Z,100548.41
2023-05-01T04:58:11.744Z,100535.44
2023-05-01T05:01:24.826Z,100534.03
2023-05-01T05:04:37.864Z,100536.44
2023-05-01T05:07:50.361Z,100540.53
2023-05-01T05:11:05.873Z,100533.91
2023-05-01T05:14:19.414Z,100531.72
2023-05-01T05:17:32.146Z,100532.31
2023-05-01T05:20:44.621Z,100539.81
2023-05-01T05:23:57.469Z,100542.63
2023-05-01T05:27:09.886Z,100540.28
2023-05-01T05:30:22.658Z,100548.31
2023-05-01T05:33:35.005Z,100545.56
2023-05-01T05:36:47.768Z,100550.41
2023-05-01T05:40:00.566Z,100556.66
2023-05-01T05:43:14.008Z,100555.47
2023-05-01T05:46:26.656Z,100552.44
2023-05-01T05:49:39.409Z,100550.44
2023-05-01T05:52:52.265Z,100548.87
2023-05-01T05:56:05.314Z,100567.78
2023-05-01T05:59:18.695Z,100558.53
2023-05-01T06:02:32.400Z,100564.59
2023-05-01T06:05:45.525Z,100574.84
2023-05-01T06:08:58.068Z,100566.25
2023-05-01T06:12:10.763Z,100564.84
2023-05-01T06:15:24.853Z,100575.53
2023-05-01T06:18:37.752Z,100572.69
2023-05-01T06:21:50.829Z,100572.69
2023-05-01T06:25:04.294Z,100574.12
2023-05-01T06:28:16.852Z,100570.47
2023-05-01T06:31:29.535Z,100564.25
2023-05-01T06:34:42.343Z,100571.69
2023-05-01T06:37:56.113Z,100572.72
2023-05-01T06:41:08.518Z,100585.59
2023-05-01T06:44:21.215Z,100585.63
2023-05-01T06:47:33.663Z,100572.69
2023-05-01T06:50:46.577Z,100584.59
2023-05-01T06:53:59.253Z,100586.41
2023-05-01T06:57:11.957Z,100593.84
2023-05-01T07:00:24.350Z,100592.81
2023-05-01T07:03:37.105Z,100598.41
2023-05-01T07:06:49.780Z,100590.28
2023-05-01T07:10:02.526Z,100602.75
2023-05-01T07:13:14.916Z,100604.34
2023-05-01T07:16:27.596Z,100610.88
2023-05-01T07:19:40.105Z,100614.28
2023-05-01T07:22:52.748Z,100614.25
2023-05-01T07:26:05.757Z,100622.63
2023-05-01T07:29:19.679Z,100626.66
2023-05-01T07:32:33.163Z,100610.34
2023-05-01T07:35:46.490Z,100618.81
2023-05-01T07:38:58.896Z,100618.41
2023-05-01T07:42:11.511Z,100614.38
2023-05-01T07:45:23.826Z,100615.44
2023-05-01T07:48:38.851Z,100617.44
2023-05-01T07:51:51.741Z,100612.00
2023-05-01T07:55:05.522Z,100616.00
2023-05-01T07:58:17.841Z,100612.84
2023-05-01T08:01:30.620Z,100625.81
2023-05-01T08:04:43.309Z,100608.41
2023-05-01T08:07:55.682Z,100608.78
2023-05-01T08:11:09.013Z,100616.72
2023-05-01T08:14:21.353Z,100617.22
2023-05-01T08:17:35.594Z,100622.22
2023-05-01T08:20:48.375Z,100614.78
2023-05-01T08:24:01.359Z,100618.28
2023-05-01T08:27:13.703Z,100617.97
2023-05-01T08:30:26.399Z,100618.41
2023-05-01T08:33:42.006Z,100617.94
2023-05-01T08:36:54.707Z,100619.97
2023-05-01T08:40:10.370Z,100622.78
2023-05-01T08:43:24.278Z,100621.16
2023-05-01T08:46:50.692Z,100615.50
2023-05-01T08:50:03.534Z,100616.34
2023-05-01T08:53:16.159Z,100605.88
2023-05-01T08:56:28.874Z,100605.25
2023-05-01T08:59:41.336Z,100605.59
2023-05-01T09:02:54.018Z,100604.66
2023-05-01T09:06:06.521Z,100606.94
2023-05-01T09:09:19.203Z,100610.16
2023-05-01T09:12:35.442Z,100610.03
2023-05-01T09:15:48.161Z,100602.94
2023-05-01T09:19:00.634Z,100602.84
2023-05-01T09:22:13.271Z,100608.41
2023-05-01T09:25:25.636Z,100608.41
2023-05-01T09:28:48.131Z,100598.56
2023-05-01T09:32:13.947Z,100608.28
2023-05-01T09:35:27.032Z,100607.81
2023-05-01T09:38:39.379Z,100609.44
2023-05-01T09:41:54.840Z,100600.56
2023-05-01T09:45:13.335Z,100606.66
2023-05-01T09:48:25.951Z,100599.53
2023-05-01T09:51:38.310Z,100597.44
2023-05-01T09:54:50.986Z,100590.22
2023-05-01T09:58:03.709Z,100587.41
2023-05-01T10:01:16.545Z,100593.75
2023-05-01T10:04:33.247Z,100583.66
2023-05-01T10:08:15.126Z,100579.78
2023-05-01T10:11:28.018Z,100572.50
2023-05-01T10:14:58.518Z,100581.34
2023-05-01T10:18:14.663Z,100576.53
2023-05-01T10:21:27.935Z,100574.44
2023-05-01T10:24:40.722Z,100574.12
2023-05-01T10:27:53.084Z,100567.41
2023-05-01T10:31:05.954Z,100574.12
2023-05-01T10:34:18.656Z,100563.59
2023-05-01T10:37:47.182Z,100563.84
2023-05-01T10:40:59.499Z,100550.94
2023-05-01T10:44:26.400Z,100548.72
2023-05-01T10:47:44.283Z,100554.16
2023-05-01T10:51:17.903Z,100552.44
2023-05-01T10:54:30.552Z,100549.53
2023-05-01T10:57:46.599Z,100540.75
2023-05-01T11:01:30.173Z,100538.09
2023-05-01T11:04:48.412Z,100532.41
2023-05-01T11:08:29.502Z,100527.00
2023-05-01T11:11:45.759Z,100537.03
2023-05-01T11:15:02.987Z,100525.47
2023-05-01T11:18:15.712Z,100518.50
2023-05-01T11:21:34.882Z,100511.91
2023-05-01T11:24:48.098Z,100515.00
2023-05-01T11:28:01.920Z,100510.06
2023-05-01T11:31:21.006Z,100508.53
2023-05-01T11:34:37.899Z,100508.31
2023-05-01T11:37:56.192Z,100496.06
2023-05-01T11:41:08.635Z,100495.56
2023-05-01T11:44:21.250Z,100494.00
2023-05-01T11:47:34.153Z,100488.13
2023-05-01T11:50:46.958Z,100486.56
2023-05-01T11:54:07.118Z,100485.97
2023-05-01T11:57:20.273Z,100489.78
2023-05-01T12:00:38.058Z,100479.66
2023-05-01T12:03:50.898Z,100485.47
2023-05-01T12:07:03.616Z,100474.87
2023-05-01T12:10:16.553Z,100482.84
2023-05-01T12:13:28.881Z,100475.88
2023-05-01T12:16:42.439Z,100473.69
2023-05-01T12:19:54.855Z,100476.41
2023-05-01T12:23:08.372Z,100471.31
2023-05-01T12:26:25.306Z,100471.56
2023-05-01T12:29:47.164Z,100462.53
2023-05-01T12:33:00.239Z,100463.41
2023-05-01T12:36:12.992Z,100459.25
2023-05-01T12:39:26.184Z,100459.53
2023-05-01T12:42:38.797Z,100456.06
2023-05-01T12:45:52.484Z,100449.81
2023-05-01T12:49:05.093Z,100442.56
2023-05-01T12:52:17.430Z,100431.53
2023-05-01T12:55:30.102Z,100436.16
2023-05-01T12:58:42.414Z,100432.91
2023-05-01T13:02:01.780Z,100431.88
2023-05-01T13:05:14.143Z,100426.00
2023-05-01T13:08:34.284Z,100428.88
2023-05-01T13:12:00.581Z,100422.63
2023-05-01T13:15:21.142Z,100411.00
2023-05-01T13:18:33.747Z,100404.00
2023-05-01T13:21:48.273Z,100419.69
2023-05-01T13:25:01.362Z,100408.75
2023-05-01T13:28:18.811Z,100408.09
2023-05-01T13:31:31.389Z,100409.94
2023-05-01T13:34:44.056Z,100405.44
2023-05-01T13:37:56.375Z,100401.81
2023-05-01T13:41:12.949Z,100394.41
2023-05-01T13:44:25.333Z,100392.16
2023-05-01T13:47:40.431Z,100389.53
2023-05-01T13:50:52.904Z,100388.41
2023-05-01T13:54:07.553Z,100387.16
2023-05-01T13:57:19.938Z,100385.87
2023-05-01T14:00:32.651Z,100383.63
2023-05-01T14:03:45.415Z,100371.06
2023-05-01T14:07:00.049Z,100367.69
2023-05-01T14:10:12.724Z,100366.88
2023-05-01T14:13:25.773Z,100362.37
2023-05-01T14:16:38.540Z,100360.06
2023-05-01T14:19:54.777Z,100358.03
2023-05-01T14:23:07.583Z,100355.78
2023-05-01T14:26:20.230Z,100346.28
2023-05-01T14:29:32.887Z,100335.22
2023-05-01T14:32:45.301Z,100343.41
2023-05-01T14:35:58.308Z,100345.50
2023-05-01T14:39:10.712Z,100344.47
2023-05-01T14:42:23.361Z,100337.53
2023-05-01T14:45:41.833Z,100335.47
2023-05-01T14:48:54.917Z,100332.22
2023-05-01T14:52:08.893Z,100328.03
2023-05-01T14:55:31.185Z,100323.81
2023-05-01T14:58:43.545Z,100319.81
2023-05-01T15:01:56.221Z,100309.69
2023-05-01T15:05:08.871Z,100316.62
2023-05-01T15:08:21.821Z,100307.47
2023-05-01T15:11:34.216Z,100310.06
2023-05-01T15:14:46.835Z,100310.94
2023-05-01T15:17:59.314Z,100306.28
2023-05-01T15:21:12.065Z,100306.22
2023-05-01T15:24:24.427Z,100315.84
2023-05-01T15:27:37.098Z,100305.00
2023-05-01T15:30:49.512Z,100308.59
2023-05-01T15:34:02.827Z,100304.50
2023-05-01T15:37:15.449Z,100302.97
2023-05-01T15:40:28.107Z,100306.56
2023-05-01T15:43:41.101Z,100304.25
2023-05-01T15:46:53.849Z,100301.03
2023-05-01T15:50:11.861Z,100294.28
2023-05-01T15:53:24.565Z,100302.97
2023-05-01T15:56:37.315Z,100290.00
2023-05-01T15:59:54.001Z,100297.59
2023-05-01T16:03:07.904Z,100299.41
2023-05-01T16:06:20.706Z,100296.53
2023-05-01T16:09:33.098Z,100295.41
2023-05-01T16:12:46.477Z,100294.69
2023-05-01T16:15:58.847Z,100295.56
2023-05-01T16:19:11.940Z,100291.50
2023-05-01T16:22:24.272Z,100293.50
2023-05-01T16:25:36.897Z,100295.66
2023-05-01T16:28:49.695Z,100295.59
2023-05-01T16:32:04.091Z,100286.16
2023-05-01T16:35:17.845Z,100280.94
2023-05-01T16:38:30.669Z,100278.31
2023-05-01T16:41:47.209Z,100281.44
2023-05-01T16:45:00.579Z,100271.37
2023-05-01T16:48:13.546Z,100285.72
2023-05-01T16:51:26.415Z,100291.03
2023-05-01T16:54:38.756Z,100287.78
2023-05-01T16:57:51.626Z,100286.44
2023-05-01T17:01:04.049Z,100288.31
2023-05-01T17:04:16.738Z,100286.16
2023-05-01T17:07:29.136Z,100277.84
2023-05-01T17:10:41.821Z,100277.75
2023-05-01T17:13:54.158Z,100278.94
2023-05-01T17:17:09.365Z,100281.56
2023-05-01T17:20:22.591Z,100280.34
2023-05-01T17:23:35.288Z,100271.78
2023-05-01T17:26:47.732Z,100273.16
2023-05-01T17:30:00.823Z,100266.84
2023-05-01T17:33:15.124Z,100272.13
2023-05-01T17:36:29.234Z,100265.09
2023-05-01T17:39:41.687Z,100268.63
2023-05-01T17:42:54.332Z,100265.25
2023-05-01T17:46:06.800Z,100265.25
2023-05-01T17:49:19.514Z,100272.31
2023-05-01T17:52:31.932Z,100263.22
2023-05-01T17:55:44.555Z,100268.63
2023-05-01T17:58:56.966Z,100265.53
2023-05-01T18:02:09.900Z,100266.53
2023-05-01T18:05:22.799Z,100253.09
2023-05-01T18:08:35.137Z,100256.59
2023-05-01T18:11:47.734Z,100253.69
2023-05-01T18:15:00.138Z,100260.34
2023-05-01T18:18:13.290Z,100253.66
2023-05-01T18:21:27.821Z,100268.09
2023-05-01T18:24:41.772Z,100269.59
2023-05-01T18:27:58.714Z,100268.09
2023-05-01T18:31:11.534Z,100269.97
2023-05-01T18:34:23.916Z,100274.66
2023-05-01T18:37:36.757Z,100278.63
2023-05-01T18:40:49.189Z,100283.44
2023-05-01T18:44:02.539Z,100286.69
2023-05-01T18:47:14.940Z,100283.25
2023-05-01T18:50:27.686Z,100283.91
2023-05-01T18:53:40.310Z,100284.84
2023-05-01T18:56:52.956Z,100287.34
2023-05-01T19:00:06.682Z,100282.22
2023-05-01T19:03:19.719Z,100285.53
2023-05-01T19:06:32.674Z,100277.97
2023-05-01T19:09:45.784Z,100288.59
2023-05-01T19:12:58.091Z,100287.87
2023-05-01T19:16:11.609Z,100286.47
2023-05-01T19:19:24.067Z,100295.19
2023-05-01T19:22:36.768Z,100287.78
2023-05-01T19:25:49.112Z,100290.91
2023-05-01T19:29:01.728Z,100285.84
2023-05-01T19:32:14.427Z,100300.25
2023-05-01T19:35:27.161Z,100292.78
2023-05-01T19:38:39.506Z,100298.19
2023-05-01T19:41:52.287Z,100303.38
2023-05-01T19:45:05.005Z,100287.59
2023-05-01T19:48:17.731Z,100284.91
2023-05-01T19:51:30.113Z,100292.28
2023-05-01T19:54:44.930Z,100291.19
2023-05-01T19:57:57.383Z,100292.06
2023-05-01T20:01:11.840Z,100290.88
2023-05-01T20:04:24.694Z,100285.47
2023-05-01T20:07:37.420Z,100291.53
2023-05-01T20:10:50.101Z,100289.47
2023-05-01T20:14:04.102Z,100299.72
2023-05-01T20:17:16.795Z,100296.34
2023-05-01T20:20:29.521Z,100294.37
2023-05-01T20:23:42.869Z,100290.69
2023-05-01T20:26:55.987Z,100293.22
2023-05-01T20:30:11.226Z,100292.41
2023-05-01T20:33:23.677Z,100293.28
2023-05-01T20:36:36.310Z,100295.16
2023-05-01T20:39:48.753Z,100290.94
2023-05-01T20:43:01.794Z,100296.03
2023-05-01T20:46:14.355Z,100297.00
2023-05-01T20:49:28.485Z,100296.69
2023-05-01T20:52:41.225Z,100304.78
2023-05-01T20:55:53.970Z,100304.81
2023-05-01T20:59:06.623Z,100309.28
2023-05-01T21:02:19.281Z,100304.81
2023-05-01T21:05:31.584Z,100309.28
2023-05-01T21:08:44.283Z,100313.38
2023-05-01T21:11:56.637Z,100318.81
2023-05-01T21:15:09.843Z,100319.50
2023-05-01T21:18:22.347Z,100315.06
2023-05-01T21:21:36.266Z,100317.88
2023-05-01T21:24:59.423Z,100320.75
2023-05-01T21:28:15.212Z,100319.31
2023-05-01T21:31:30.173Z,100314.28
2023-05-01T21:34:42.856Z,100326.22
2023-05-01T21:37:55.319Z,100317.53
2023-05-01T21:41:08.527Z,100318.34
2023-05-01T21:44:21.045Z,100322.69
2023-05-01T21:47:38.700Z,100318.00
2023-05-01T21:50:51.464Z,100320.62
2023-05-01T21:54:04.076Z,100321.44
2023-05-01T21:57:16.519Z,100323.59
2023-05-01T22:00:30.041Z,100323.00
2023-05-01T22:03:44.613Z,100328.00
2023-05-01T22:06:57.553Z,100327.94
2023-05-01T22:10:14.080Z,100325.56
2023-05-01T22:13:33.208Z,100329.13
2023-05-01T22:16:45.991Z,100321.56
2023-05-01T22:19:58.531Z,100327.56
2023-05-01T22:23:11.370Z,100320.16
2023-05-01T22:26:23.785Z,100321.50
2023-05-01T22:29:36.433Z,100326.44
2023-05-01T22:32:48.857Z,100321.38
2023-05-01T22:36:01.474Z,100321.56
2023-05-01T22:39:13.785Z,100325.25
2023-05-01T22:42:26.452Z,100325.28
2023-05-01T22:45:39.617Z,100317.22
2023-05-01T22:48:52.285Z,100308.37
2023-05-01T22:52:04.815Z,100323.53
2023-05-01T22:55:17.757Z,100315.28
2023-05-01T22:58:30.196Z,100316.91
2023-05-01T23:01:43.105Z,100319.00
2023-05-01T23:04:55.566Z,100320.19
2023-05-01T23:08:08.452Z,100322.63
2023-05-01T23:11:21.447Z,100322.25
2023-05-01T23:14:36.164Z,100318.16
2023-05-01T23:17:48.508Z,100322.37
2023-05-01T23:21:01.147Z,100324.59
2023-05-01T23:24:16.198Z,100321.34
2023-05-01T23:27:29.634Z,100327.06
2023-05-01T23:30:41.978Z,100327.25
2023-05-01T23:33:55.447Z,100314.16
2023-05-01T23:37:07.851Z,100313.72
2023-05-01T23:40:20.503Z,100312.72
2023-05-01T23:43:33.496Z,100318.56
2023-05-01T23:46:46.844Z,100322.94
2023-05-01T23:49:59.489Z,100313.44
2023-05-01T23:53:12.461Z,100314.91
2023-05-01T23:56:24.781Z,100310.56
2023-05-01T23:59:37.606Z,100308.91
